createdAt,value
2019-01-16T00:00:07.553Z,4.53
2019-01-16T00:02:56.593Z,4.73
2019-01-16T00:05:36.166Z,4.70
2019-01-16T00:08:18.826Z,6.67
2019-01-16T00:10:52.219Z,5.67
2019-01-16T00:13:38.805Z,4.80
2019-01-16T00:16:09.430Z,8.30
2019-01-16T00:18:48.398Z,6.30
2019-01-16T00:21:35.150Z,5.90
2019-01-16T00:24:21.638Z,13.53
2019-01-16T00:27:08.389Z,5.67
2019-01-16T00:29:38.657Z,6.87
2019-01-16T00:32:08.926Z,5.70
2019-01-16T00:34:54.584Z,5.47
2019-01-16T00:37:24.849Z,6.80
2019-01-16T00:39:58.200Z,4.17
2019-01-16T00:42:37.699Z,4.23
2019-01-16T00:45:12.844Z,8.93
2019-01-16T00:47:43.181Z,6.47
2019-01-16T00:50:13.586Z,4.23
2019-01-16T00:53:00.219Z,4.97
2019-01-16T00:55:33.695Z,4.03
2019-01-16T00:58:03.958Z,3.87
2019-01-16T01:00:34.327Z,5.00
2019-01-16T01:03:13.864Z,4.23
2019-01-16T01:05:50.013Z,4.53
2019-01-16T01:08:36.492Z,6.10
2019-01-16T01:11:09.602Z,5.63
2019-01-16T01:13:58.129Z,5.53
2019-01-16T01:16:28.499Z,5.57
2019-01-16T01:19:07.891Z,7.23
2019-01-16T01:21:38.350Z,5.73
2019-01-16T01:24:12.063Z,4.83
2019-01-16T01:26:54.767Z,7.87
2019-01-16T01:29:25.242Z,5.93
2019-01-16T01:32:04.569Z,4.63
2019-01-16T01:34:34.836Z,5.97
2019-01-16T01:37:07.945Z,6.10
2019-01-16T01:39:38.167Z,6.00
2019-01-16T01:42:17.788Z,5.77
2019-01-16T01:44:57.091Z,5.87
2019-01-16T01:47:39.372Z,4.47
2019-01-16T01:50:19.935Z,5.20
2019-01-16T01:52:53.261Z,5.23
2019-01-16T01:55:29.349Z,6.60
2019-01-16T01:57:59.632Z,7.73
2019-01-16T02:00:46.175Z,3.37
2019-01-16T02:03:16.440Z,4.13
2019-01-16T02:05:55.733Z,4.93
2019-01-16T02:08:41.130Z,3.97
2019-01-16T02:11:11.496Z,4.73
2019-01-16T02:13:41.704Z,4.13
2019-01-16T02:16:11.974Z,3.30
2019-01-16T02:18:47.346Z,3.33
2019-01-16T02:21:30.594Z,5.07
2019-01-16T02:24:03.621Z,5.93
2019-01-16T02:26:49.988Z,2.93
2019-01-16T02:29:20.358Z,6.40
2019-01-16T02:31:50.565Z,3.83
2019-01-16T02:34:23.305Z,3.57
2019-01-16T02:36:56.402Z,4.27
2019-01-16T02:39:26.673Z,4.73
2019-01-16T02:42:13.369Z,9.23
2019-01-16T02:45:01.048Z,4.83
2019-01-16T02:47:37.337Z,4.10
2019-01-16T02:50:09.164Z,5.13
2019-01-16T02:52:39.378Z,3.57
2019-01-16T02:55:26.490Z,3.50
2019-01-16T02:58:08.954Z,3.70
2019-01-16T03:00:39.317Z,5.30
2019-01-16T03:03:09.589Z,4.20
2019-01-16T03:05:45.852Z,3.60
2019-01-16T03:08:32.634Z,6.30
2019-01-16T03:11:15.200Z,5.77
2019-01-16T03:13:48.182Z,4.23
2019-01-16T03:16:21.236Z,5.83
2019-01-16T03:18:51.509Z,5.33
2019-01-16T03:21:21.781Z,5.60
2019-01-16T03:23:52.121Z,6.10
2019-01-16T03:26:22.307Z,5.50
2019-01-16T03:28:59.051Z,6.97
2019-01-16T03:31:44.319Z,5.37
2019-01-16T03:34:14.615Z,4.80
2019-01-16T03:37:01.156Z,5.27
2019-01-16T03:39:37.391Z,7.53
2019-01-16T03:42:07.721Z,6.23
2019-01-16T03:44:38.073Z,7.13
2019-01-16T03:47:25.208Z,7.20
2019-01-16T03:50:04.466Z,8.33
2019-01-16T03:52:34.845Z,8.20
2019-01-16T03:55:18.275Z,6.10
2019-01-16T03:57:48.591Z,7.57
2019-01-16T04:00:35.286Z,7.40
2019-01-16T04:03:11.602Z,6.23
2019-01-16T04:05:44.833Z,7.70
2019-01-16T04:08:15.166Z,7.47
2019-01-16T04:10:45.547Z,8.57
2019-01-16T04:13:18.594Z,10.73
2019-01-16T04:15:48.939Z,11.90
2019-01-16T04:18:31.359Z,9.97
2019-01-16T04:21:19.360Z,8.23
2019-01-16T04:24:06.107Z,8.80
2019-01-16T04:26:36.302Z,10.23
2019-01-16T04:29:21.721Z,9.50
2019-01-16T04:31:54.490Z,11.90
2019-01-16T04:34:41.353Z,9.07
2019-01-16T04:37:11.559Z,10.23
2019-01-16T04:39:56.921Z,6.83
2019-01-16T04:42:33.023Z,9.03
2019-01-16T04:45:19.898Z,10.87
2019-01-16T04:48:06.663Z,8.03
2019-01-16T04:50:43.219Z,8.90
2019-01-16T04:53:19.553Z,6.10
2019-01-16T04:55:51.144Z,9.50
2019-01-16T04:58:33.498Z,7.77
2019-01-16T05:01:07.950Z,8.63
2019-01-16T05:03:47.558Z,8.50
2019-01-16T05:06:24.033Z,9.20
2019-01-16T05:08:54.249Z,8.13
2019-01-16T05:11:42.405Z,8.53
2019-01-16T05:14:30.399Z,6.13
2019-01-16T05:17:16.792Z,6.40
2019-01-16T05:19:53.402Z,9.13
2019-01-16T05:22:26.780Z,10.43
2019-01-16T05:25:12.078Z,11.33
2019-01-16T05:27:47.923Z,7.53
2019-01-16T05:30:27.318Z,8.87
2019-01-16T05:32:57.579Z,9.10
2019-01-16T05:35:28.066Z,7.97
2019-01-16T05:38:08.536Z,8.97
2019-01-16T05:40:55.203Z,7.53
2019-01-16T05:43:31.021Z,7.90
2019-01-16T05:46:01.319Z,8.40
2019-01-16T05:48:39.166Z,6.63
2019-01-16T05:51:09.770Z,5.47
2019-01-16T05:53:55.061Z,7.87
2019-01-16T05:56:40.114Z,7.10
2019-01-16T05:59:10.666Z,6.90
2019-01-16T06:01:44.232Z,7.03
2019-01-16T06:04:29.792Z,7.90
2019-01-16T06:07:05.529Z,6.93
2019-01-16T06:09:47.873Z,8.40
2019-01-16T06:12:20.883Z,7.17
2019-01-16T06:14:54.100Z,8.30
2019-01-16T06:17:24.562Z,8.17
2019-01-16T06:20:10.012Z,9.20
2019-01-16T06:22:56.630Z,10.67
2019-01-16T06:25:30.047Z,7.53
2019-01-16T06:28:06.283Z,10.43
2019-01-16T06:30:42.862Z,11.97
2019-01-16T06:33:25.266Z,9.23
2019-01-16T06:35:55.650Z,11.50
2019-01-16T06:38:29.215Z,15.23
2019-01-16T06:41:08.187Z,9.53
2019-01-16T06:43:48.543Z,11.60
2019-01-16T06:46:33.609Z,10.77
2019-01-16T06:49:13.189Z,11.40
2019-01-16T06:51:43.583Z,11.27
2019-01-16T06:54:31.453Z,11.63
2019-01-16T06:57:01.756Z,12.87
2019-01-16T06:59:35.102Z,11.10
2019-01-16T07:02:16.901Z,9.50
2019-01-16T07:05:03.309Z,9.40
2019-01-16T07:07:36.575Z,13.20
2019-01-16T07:10:19.071Z,12.60
2019-01-16T07:13:06.061Z,8.97
2019-01-16T07:15:46.876Z,14.70
2019-01-16T07:18:34.982Z,11.40
2019-01-16T07:21:08.191Z,11.10
2019-01-16T07:23:54.788Z,13.70
2019-01-16T07:26:27.592Z,10.77
2019-01-16T07:28:57.881Z,12.53
2019-01-16T07:31:32.345Z,14.03
2019-01-16T07:34:02.666Z,12.53
2019-01-16T07:36:35.754Z,14.67
2019-01-16T07:39:24.909Z,10.63
2019-01-16T07:42:04.314Z,12.73
2019-01-16T07:44:34.592Z,14.67
2019-01-16T07:47:04.884Z,14.30
2019-01-16T07:49:44.981Z,15.43
2019-01-16T07:52:30.634Z,14.30
2019-01-16T07:55:04.051Z,15.63
2019-01-16T07:57:37.049Z,15.93
2019-01-16T08:00:13.055Z,11.57
2019-01-16T08:02:52.409Z,15.17
2019-01-16T08:05:25.815Z,15.33
2019-01-16T08:07:56.113Z,15.23
2019-01-16T08:10:42.793Z,12.83
2019-01-16T08:13:15.877Z,13.10
2019-01-16T08:15:46.169Z,15.07
2019-01-16T08:18:16.750Z,13.83
2019-01-16T08:21:05.302Z,16.03
2019-01-16T08:23:47.781Z,19.50
2019-01-16T08:26:20.913Z,15.43
2019-01-16T08:29:03.424Z,17.13
2019-01-16T08:31:36.700Z,15.87
2019-01-16T08:34:10.599Z,17.50
2019-01-16T08:36:56.258Z,18.47
2019-01-16T08:39:26.658Z,17.17
2019-01-16T08:41:59.730Z,16.00
2019-01-16T08:44:40.475Z,15.47
2019-01-16T08:47:16.176Z,20.20
2019-01-16T08:49:54.382Z,17.97
2019-01-16T08:52:24.856Z,18.33
2019-01-16T08:55:04.261Z,15.17
2019-01-16T08:57:40.846Z,17.87
2019-01-16T09:00:32.182Z,19.90
2019-01-16T09:03:18.803Z,14.93
2019-01-16T09:06:11.329Z,17.07
2019-01-16T09:08:57.956Z,20.50
2019-01-16T09:11:37.707Z,15.60
2019-01-16T09:14:10.773Z,21.43
2019-01-16T09:16:41.154Z,14.20
2019-01-16T09:19:16.976Z,18.67
2019-01-16T09:21:48.030Z,19.77
2019-01-16T09:24:18.379Z,19.03
2019-01-16T09:26:55.784Z,14.00
2019-01-16T09:29:31.820Z,13.97
2019-01-16T09:32:13.866Z,11.93
2019-01-16T09:34:45.795Z,14.47
2019-01-16T09:37:16.084Z,15.40
2019-01-16T09:39:48.922Z,14.93
2019-01-16T09:42:19.268Z,12.87
2019-01-16T09:44:52.504Z,13.97
2019-01-16T09:47:24.357Z,12.60
2019-01-16T09:50:03.447Z,15.30
2019-01-16T09:52:51.674Z,14.43
2019-01-16T09:55:24.902Z,20.87
2019-01-16T09:58:09.846Z,12.57
2019-01-16T10:00:56.471Z,13.93
2019-01-16T10:03:26.858Z,11.43
2019-01-16T10:06:13.321Z,14.63
2019-01-16T10:09:01.642Z,14.43
2019-01-16T10:11:35.111Z,14.40
2019-01-16T10:14:14.515Z,15.33
2019-01-16T10:16:44.922Z,13.27
2019-01-16T10:19:15.735Z,13.40
2019-01-16T10:21:55.320Z,13.23
2019-01-16T10:24:34.877Z,15.80
2019-01-16T10:27:08.506Z,16.90
2019-01-16T10:29:55.600Z,12.57
2019-01-16T10:32:38.208Z,12.80
2019-01-16T10:35:20.775Z,10.43
2019-01-16T10:38:10.204Z,12.60
2019-01-16T10:40:40.549Z,9.23
2019-01-16T10:43:10.877Z,11.40
2019-01-16T10:45:57.083Z,13.07
2019-01-16T10:48:49.563Z,16.63
2019-01-16T10:51:23.353Z,11.57
2019-01-16T10:53:53.896Z,10.23
2019-01-16T10:56:24.250Z,12.93
2019-01-16T10:59:05.078Z,10.37
2019-01-16T11:01:36.041Z,10.90
2019-01-16T11:04:07.038Z,10.37
2019-01-16T11:06:38.844Z,11.90
2019-01-16T11:09:26.790Z,11.93
2019-01-16T11:12:06.250Z,9.87
2019-01-16T11:14:56.298Z,12.10
2019-01-16T11:17:44.971Z,11.93
2019-01-16T11:20:15.341Z,13.87
2019-01-16T11:22:51.994Z,14.60
2019-01-16T11:25:38.368Z,15.33
2019-01-16T11:28:11.433Z,13.57
2019-01-16T11:30:41.720Z,17.27
2019-01-16T11:33:17.997Z,13.40
2019-01-16T11:36:04.798Z,18.70
2019-01-16T11:38:35.186Z,12.73
2019-01-16T11:41:11.275Z,14.17
2019-01-16T11:43:47.598Z,13.37
2019-01-16T11:46:26.478Z,16.20
2019-01-16T11:49:13.573Z,14.70
2019-01-16T11:52:02.473Z,12.60
2019-01-16T11:54:35.330Z,19.20
2019-01-16T11:57:22.237Z,19.10
2019-01-16T11:59:52.592Z,14.73
2019-01-16T12:02:38.483Z,13.63
2019-01-16T12:05:20.550Z,20.20
2019-01-16T12:07:53.394Z,17.03
2019-01-16T12:10:33.688Z,16.90
2019-01-16T12:13:22.245Z,15.97
2019-01-16T12:15:55.367Z,15.03
2019-01-16T12:18:29.073Z,15.07
2019-01-16T12:21:08.311Z,17.27
2019-01-16T12:23:38.661Z,15.30
2019-01-16T12:26:12.008Z,17.07
2019-01-16T12:28:51.688Z,15.00
2019-01-16T12:31:24.999Z,14.47
2019-01-16T12:33:55.282Z,17.33
2019-01-16T12:36:25.689Z,14.17
2019-01-16T12:38:56.065Z,16.57
2019-01-16T12:41:38.806Z,14.60
2019-01-16T12:44:25.615Z,15.57
2019-01-16T12:46:58.875Z,15.67
2019-01-16T12:49:31.817Z,12.20
2019-01-16T12:52:02.167Z,13.63
2019-01-16T12:54:44.772Z,17.23
2019-01-16T12:57:20.805Z,15.00
2019-01-16T12:59:59.500Z,15.67
2019-01-16T13:02:30.062Z,13.80
2019-01-16T13:05:06.217Z,13.33
2019-01-16T13:07:42.598Z,17.83
2019-01-16T13:10:29.895Z,14.97
2019-01-16T13:13:06.249Z,14.67
2019-01-16T13:15:51.971Z,17.57
2019-01-16T13:18:40.460Z,14.73
2019-01-16T13:21:19.550Z,13.60
2019-01-16T13:23:55.846Z,12.20
2019-01-16T13:26:34.975Z,12.97
2019-01-16T13:29:05.609Z,15.60
2019-01-16T13:31:35.911Z,11.17
2019-01-16T13:34:08.518Z,14.53
2019-01-16T13:36:38.859Z,13.93
2019-01-16T13:39:24.925Z,16.53
2019-01-16T13:42:11.230Z,17.23
2019-01-16T13:44:58.134Z,19.10
2019-01-16T13:47:43.540Z,15.40
2019-01-16T13:50:17.657Z,13.67
2019-01-16T13:52:48.001Z,11.90
2019-01-16T13:55:18.562Z,12.40
2019-01-16T13:57:51.665Z,15.23
2019-01-16T14:00:30.921Z,13.40
2019-01-16T14:03:10.382Z,13.23
2019-01-16T14:05:56.934Z,10.77
2019-01-16T14:08:30.156Z,14.80
2019-01-16T14:11:00.533Z,12.60
2019-01-16T14:13:30.834Z,12.83
2019-01-16T14:16:01.265Z,12.80
2019-01-16T14:18:49.503Z,12.17
2019-01-16T14:21:25.618Z,10.87
2019-01-16T14:24:02.195Z,16.73
2019-01-16T14:26:32.793Z,13.37
2019-01-16T14:29:11.545Z,15.73
2019-01-16T14:31:46.315Z,10.77
2019-01-16T14:34:19.820Z,13.20
2019-01-16T14:37:05.548Z,17.83
2019-01-16T14:39:35.833Z,17.87
2019-01-16T14:42:11.962Z,12.33
2019-01-16T14:44:58.946Z,13.23
2019-01-16T14:47:47.069Z,10.53
2019-01-16T14:50:32.225Z,10.83
2019-01-16T14:53:12.089Z,13.37
2019-01-16T14:55:59.581Z,12.33
2019-01-16T14:58:33.879Z,11.20
2019-01-16T15:01:22.377Z,11.93
2019-01-16T15:03:52.774Z,10.47
2019-01-16T15:06:28.895Z,13.17
2019-01-16T15:09:02.293Z,12.60
2019-01-16T15:11:33.247Z,15.33
2019-01-16T15:14:06.820Z,14.13
2019-01-16T15:16:37.176Z,10.37
2019-01-16T15:19:16.386Z,9.70
2019-01-16T15:22:06.422Z,11.17
2019-01-16T15:24:35.366Z,9.10
2019-01-16T15:27:21.694Z,10.77
2019-01-16T15:30:04.080Z,8.03
2019-01-16T15:32:34.936Z,10.23
2019-01-16T15:35:23.231Z,13.43
2019-01-16T15:37:53.050Z,11.90
2019-01-16T15:40:26.451Z,10.53
2019-01-16T15:43:02.707Z,11.00
2019-01-16T15:45:51.456Z,12.97
2019-01-16T15:48:24.714Z,13.10
2019-01-16T15:50:55.119Z,10.00
2019-01-16T15:53:44.809Z,11.53
2019-01-16T15:56:21.301Z,11.53
2019-01-16T15:58:57.761Z,11.10
2019-01-16T16:01:45.347Z,10.57
2019-01-16T16:04:15.831Z,13.90
2019-01-16T16:06:48.667Z,10.57
2019-01-16T16:09:26.976Z,12.57
2019-01-16T16:12:04.191Z,10.43
2019-01-16T16:14:47.670Z,11.03
2019-01-16T16:17:17.991Z,12.07
2019-01-16T16:19:54.285Z,13.37
2019-01-16T16:22:45.041Z,16.40
2019-01-16T16:25:21.177Z,15.50
2019-01-16T16:27:52.975Z,15.40
2019-01-16T16:30:32.273Z,14.13
2019-01-16T16:33:04.240Z,11.27
2019-01-16T16:35:46.565Z,14.77
2019-01-16T16:38:33.159Z,18.93
2019-01-16T16:41:05.110Z,9.67
2019-01-16T16:43:38.650Z,9.10
2019-01-16T16:46:09.016Z,13.80
2019-01-16T16:48:52.986Z,14.93
2019-01-16T16:51:30.700Z,9.33
2019-01-16T16:54:35.386Z,8.47
2019-01-16T16:57:15.221Z,17.97
2019-01-16T16:59:45.006Z,13.07
2019-01-16T17:02:27.719Z,16.63
2019-01-16T17:05:16.332Z,14.40
2019-01-16T17:07:48.147Z,12.50
2019-01-16T17:10:23.951Z,8.30
2019-01-16T17:12:55.253Z,10.60
2019-01-16T17:15:31.825Z,11.50
2019-01-16T17:18:02.320Z,15.27
2019-01-16T17:20:38.968Z,12.87
2019-01-16T17:23:11.095Z,10.83
2019-01-16T17:26:01.179Z,14.57
2019-01-16T17:28:31.445Z,8.40
2019-01-16T17:31:04.424Z,17.77
2019-01-16T17:33:41.325Z,10.03
2019-01-16T17:36:11.878Z,12.93
2019-01-16T17:38:57.611Z,15.97
2019-01-16T17:41:28.356Z,12.23
2019-01-16T17:44:08.937Z,16.43
2019-01-16T17:46:40.259Z,13.50
2019-01-16T17:49:28.146Z,16.33
2019-01-16T17:52:16.370Z,15.27
2019-01-16T17:54:56.129Z,10.47
2019-01-16T17:57:38.708Z,17.07
2019-01-16T18:00:28.493Z,18.20
2019-01-16T18:03:00.378Z,16.87
2019-01-16T18:05:59.099Z,13.37
2019-01-16T18:08:50.080Z,15.73
2019-01-16T18:11:38.382Z,15.07
2019-01-16T18:14:14.231Z,12.77
2019-01-16T18:16:51.828Z,11.77
2019-01-16T18:19:25.008Z,13.93
2019-01-16T18:22:10.615Z,20.57
2019-01-16T18:24:40.942Z,16.77
2019-01-16T18:27:16.924Z,12.17
2019-01-16T18:29:51.567Z,16.60
2019-01-16T18:32:38.181Z,13.43
2019-01-16T18:35:09.078Z,15.60
2019-01-16T18:37:56.350Z,15.03
2019-01-16T18:40:45.276Z,17.37
2019-01-16T18:43:27.585Z,11.13
2019-01-16T18:46:08.618Z,11.40
2019-01-16T18:48:45.841Z,12.73
2019-01-16T18:51:19.297Z,15.73
2019-01-16T18:53:49.799Z,18.90
2019-01-16T18:56:36.369Z,16.50
2019-01-16T18:59:22.662Z,16.00
2019-01-16T19:01:57.228Z,13.70
2019-01-16T19:04:42.421Z,18.27
2019-01-16T19:07:23.099Z,14.53
2019-01-16T19:09:54.960Z,15.33
2019-01-16T19:12:43.179Z,17.53
2019-01-16T19:15:18.028Z,10.77
2019-01-16T19:17:51.228Z,13.73
2019-01-16T19:20:28.637Z,18.07
2019-01-16T19:22:59.013Z,16.70
2019-01-16T19:25:35.024Z,19.47
2019-01-16T19:28:05.378Z,14.60
2019-01-16T19:30:56.160Z,16.87
2019-01-16T19:33:26.484Z,19.23
2019-01-16T19:36:13.196Z,19.70
2019-01-16T19:38:47.178Z,17.00
2019-01-16T19:41:23.313Z,16.17
2019-01-16T19:44:03.929Z,17.27
2019-01-16T19:46:39.973Z,18.03
2019-01-16T19:49:10.352Z,17.23
2019-01-16T19:51:53.918Z,17.57
2019-01-16T19:54:26.966Z,14.07
2019-01-16T19:57:16.335Z,15.23
2019-01-16T19:59:49.573Z,14.87
2019-01-16T20:02:31.230Z,19.63
2019-01-16T20:05:04.685Z,17.50
2019-01-16T20:07:34.927Z,20.00
2019-01-16T20:10:16.698Z,15.33
2019-01-16T20:12:59.169Z,14.50
2019-01-16T20:15:32.199Z,13.47
2019-01-16T20:18:08.678Z,16.43
2019-01-16T20:20:55.583Z,14.70
2019-01-16T20:23:42.224Z,15.40
2019-01-16T20:26:15.188Z,17.70
2019-01-16T20:28:47.197Z,15.87
2019-01-16T20:31:34.142Z,14.17
2019-01-16T20:34:19.120Z,15.30
2019-01-16T20:36:53.029Z,15.57
2019-01-16T20:39:23.534Z,14.90
2019-01-16T20:42:02.875Z,16.67
2019-01-16T20:44:39.093Z,14.33
2019-01-16T20:47:26.296Z,16.53
2019-01-16T20:49:59.756Z,17.77
2019-01-16T20:52:44.664Z,16.90
2019-01-16T20:55:20.623Z,18.63
2019-01-16T20:58:07.829Z,17.30
2019-01-16T21:00:53.549Z,14.63
2019-01-16T21:03:26.902Z,14.57
2019-01-16T21:05:57.271Z,18.63
2019-01-16T21:08:45.583Z,17.30
2019-01-16T21:11:17.079Z,19.70
2019-01-16T21:13:58.040Z,23.00
2019-01-16T21:16:28.661Z,14.93
2019-01-16T21:19:08.254Z,13.90
2019-01-16T21:21:44.391Z,17.93
2019-01-16T21:24:31.229Z,19.27
2019-01-16T21:27:01.531Z,15.23
2019-01-16T21:29:33.155Z,14.73
2019-01-16T21:32:09.318Z,14.67
2019-01-16T21:34:48.583Z,13.67
2019-01-16T21:37:30.631Z,15.07
2019-01-16T21:40:06.771Z,14.10
2019-01-16T21:42:37.952Z,19.13
2019-01-16T21:45:11.360Z,19.93
2019-01-16T21:47:59.742Z,14.83
2019-01-16T21:50:43.129Z,23.60
2019-01-16T21:53:19.637Z,15.67
2019-01-16T21:56:08.159Z,16.10
2019-01-16T21:58:55.090Z,18.23
2019-01-16T22:01:40.653Z,13.57
2019-01-16T22:04:11.047Z,17.63
2019-01-16T22:07:00.891Z,19.40
2019-01-16T22:09:53.723Z,15.60
2019-01-16T22:12:32.918Z,17.53
2019-01-16T22:15:05.546Z,13.90
2019-01-16T22:17:35.881Z,15.30
2019-01-16T22:20:27.717Z,16.00
2019-01-16T22:23:00.799Z,18.57
2019-01-16T22:25:31.152Z,16.53
2019-01-16T22:28:21.631Z,14.80
2019-01-16T22:30:59.908Z,15.03
2019-01-16T22:33:46.289Z,21.90
2019-01-16T22:36:16.745Z,14.80
2019-01-16T22:38:51.098Z,15.37
2019-01-16T22:41:24.661Z,14.80
2019-01-16T22:43:54.949Z,19.80
2019-01-16T22:46:28.275Z,14.97
2019-01-16T22:48:59.167Z,17.87
2019-01-16T22:51:41.787Z,15.50
2019-01-16T22:54:12.205Z,20.53
2019-01-16T22:56:45.250Z,17.33
2019-01-16T22:59:21.525Z,16.00
2019-01-16T23:02:09.698Z,17.27
2019-01-16T23:04:51.617Z,13.90
2019-01-16T23:07:22.006Z,12.63
2019-01-16T23:10:00.587Z,13.40
2019-01-16T23:12:47.068Z,16.43
2019-01-16T23:15:34.099Z,17.07
2019-01-16T23:18:23.754Z,15.67
2019-01-16T23:21:01.609Z,19.67
2019-01-16T23:23:50.004Z,18.00
2019-01-16T23:26:30.450Z,18.33
2019-01-16T23:29:14.144Z,16.20
2019-01-16T23:31:44.516Z,15.00
2019-01-16T23:34:31.711Z,16.90
2019-01-16T23:37:07.827Z,20.13
2019-01-16T23:39:38.254Z,14.73
2019-01-16T23:42:14.613Z,18.53
2019-01-16T23:44:50.747Z,14.93
2019-01-16T23:47:21.084Z,13.87
2019-01-16T23:50:07.638Z,15.27
2019-01-16T23:52:38.323Z,15.33
2019-01-16T23:55:16.133Z,16.90
2019-01-16T23:57:49.456Z,15.87
